Forside
METAR-TAF:

METAR-TAF

Lufthavne :

Bole Lufthavn

Addis Ababa, Etiopien

Breddekreds: 08-59N, længdekreds: 038-48E, højde: 2355 m

Aktuelle vejr

Denne rapport blev lavet for 4 timer og 19 minutter siden, kl. 23:00 UTC
Vind 8 kt fra østnordøst
Temperatur 14°C
Fugtighed 88%
Tryk 1027 hPa
Sigt 10 km eller mere
Brudte skyer i en højde af 2600 ft

METAR: HAAB 162300Z 07008KT 9999 BKN026 14/12 Q1027

Tid: 06:19 (03:19 UTC)

Vejrudsigter

Denne rapport blev lavet for 11 timer og 49 minutter siden, kl. 15:30 UTC
Foreløbig gælder fra 16 på 18 UTC til 17 på 24 UTC
Vind 6 kt fra østnordøst
Sigt 10 km eller mere
Spredte skyer i en højde af 2000 ft
Spredte skyer i en højde af 6000 ft
ændring
fra 16 på 20 UTC til 16 på 23 UTC
Vind 4 kt fra nord
Spredte skyer i en højde af 2400 ft
ændring
fra 17 på 05 UTC til 17 på 08 UTC
Vind 5 kt fra øst
Spredte skyer i en højde af 4000 ft

TAF: HAAB 161530Z 1618/1724 06006KT 9999 SCT020 SCT060 BECMG 1620/1623 36004KT SCT024 BECMG 1705/1708 09005KT SCT040

Vejrobservationer og prognoser fra mere end 4000 lufthavne (METAR og TAF).

De gule og røde prikker repræsenterer de meteorologiske stationer.

Flyt musen over at se navnet på stationen.

Så klik over at se vejr observationer og prognoser.

At skifte det kort: Klik på de grønne knapper med et sort kors for at zoome ind; på den grønne knap med en bindestreg for at zoome ud; eller på de grønne pile for tilstødende kort.


METAR-TAF: